createdAt,value
2023-12-23T00:01:10.346Z,1.77
2023-12-23T00:03:38.520Z,1.47
2023-12-23T00:06:07.318Z,1.40
2023-12-23T00:08:35.351Z,1.43
2023-12-23T00:11:04.628Z,1.63
2023-12-23T00:13:32.713Z,1.30
2023-12-23T00:16:00.875Z,1.80
2023-12-23T00:18:30.354Z,1.43
2023-12-23T00:20:58.792Z,1.50
2023-12-23T00:23:26.814Z,1.43
2023-12-23T00:25:55.910Z,1.50
2023-12-23T00:28:24.085Z,1.50
2023-12-23T00:30:52.428Z,1.43
2023-12-23T00:33:21.067Z,1.40
2023-12-23T00:35:50.516Z,1.80
2023-12-23T00:38:18.827Z,1.60
2023-12-23T00:40:46.868Z,1.70
2023-12-23T00:43:14.969Z,1.03
2023-12-23T00:45:43.010Z,2.50
2023-12-23T00:48:12.793Z,1.90
2023-12-23T00:50:41.504Z,2.10
2023-12-23T00:53:11.419Z,1.33
2023-12-23T00:55:40.243Z,1.70
2023-12-23T00:58:08.415Z,1.50
2023-12-23T01:00:36.503Z,1.90
2023-12-23T01:03:05.639Z,1.53
2023-12-23T01:05:34.029Z,1.53
2023-12-23T01:08:02.121Z,0.90
2023-12-23T01:10:31.573Z,1.90
2023-12-23T01:12:59.622Z,2.10
2023-12-23T01:15:28.034Z,1.47
2023-12-23T01:17:56.321Z,1.50
2023-12-23T01:20:24.395Z,1.30
2023-12-23T01:22:52.740Z,1.40
2023-12-23T01:25:21.637Z,1.60
2023-12-23T01:27:51.357Z,1.57
2023-12-23T01:30:19.733Z,1.37
2023-12-23T01:32:48.230Z,1.77
2023-12-23T01:35:18.777Z,1.73
2023-12-23T01:37:47.005Z,1.60
2023-12-23T01:40:15.256Z,1.73
2023-12-23T01:42:43.268Z,1.27
2023-12-23T01:45:14.260Z,1.10
2023-12-23T01:47:44.852Z,1.50
2023-12-23T01:50:13.736Z,1.40
2023-12-23T01:52:42.233Z,1.47
2023-12-23T01:55:10.896Z,1.50
2023-12-23T01:57:39.453Z,1.60
2023-12-23T02:00:09.607Z,1.20
2023-12-23T02:02:44.090Z,1.40
2023-12-23T02:05:13.225Z,1.17
2023-12-23T02:07:43.641Z,1.50
2023-12-23T02:10:11.862Z,1.13
2023-12-23T02:12:48.108Z,1.13
2023-12-23T02:15:17.828Z,1.10
2023-12-23T02:17:47.673Z,1.20
2023-12-23T02:20:16.068Z,1.00
2023-12-23T02:22:45.766Z,1.23
2023-12-23T02:25:13.836Z,1.10
2023-12-23T02:27:47.014Z,1.47
2023-12-23T02:30:17.925Z,1.33
2023-12-23T02:32:47.064Z,1.20
2023-12-23T02:35:15.309Z,1.30
2023-12-23T02:37:44.799Z,1.00
2023-12-23T02:40:13.327Z,0.90
2023-12-23T02:42:41.325Z,1.00
2023-12-23T02:45:10.270Z,1.13
2023-12-23T02:47:38.422Z,1.23
2023-12-23T02:50:07.920Z,1.30
2023-12-23T02:52:36.007Z,1.20
2023-12-23T02:55:06.480Z,1.23
2023-12-23T02:57:34.503Z,1.20
2023-12-23T03:00:02.716Z,1.20
2023-12-23T03:02:31.270Z,1.70
2023-12-23T03:05:00.116Z,1.40
2023-12-23T03:07:28.289Z,1.20
2023-12-23T03:09:56.443Z,1.73
2023-12-23T03:12:25.962Z,1.40
2023-12-23T03:14:53.984Z,1.83
2023-12-23T03:17:22.137Z,1.70
2023-12-23T03:19:50.202Z,2.10
2023-12-23T03:22:19.729Z,2.27
2023-12-23T03:24:47.760Z,1.93
2023-12-23T03:27:19.670Z,2.40
2023-12-23T03:29:49.188Z,2.60
2023-12-23T03:32:18.830Z,2.37
2023-12-23T03:34:47.025Z,2.37
2023-12-23T03:37:15.279Z,2.13
2023-12-23T03:39:45.831Z,2.33
2023-12-23T03:42:13.913Z,2.40
2023-12-23T03:44:41.933Z,2.80
2023-12-23T03:47:11.374Z,1.83
2023-12-23T03:49:39.681Z,2.80
2023-12-23T03:52:07.692Z,1.93
2023-12-23T03:54:36.268Z,3.03
2023-12-23T03:57:04.542Z,2.70
2023-12-23T03:59:33.036Z,2.60
2023-12-23T04:02:01.198Z,2.67
2023-12-23T04:04:30.811Z,4.40
2023-12-23T04:06:58.934Z,2.93
2023-12-23T04:09:26.986Z,2.80
2023-12-23T04:11:55.098Z,3.17
2023-12-23T04:14:23.233Z,2.70
2023-12-23T04:16:51.402Z,3.47
2023-12-23T04:19:19.598Z,3.50
2023-12-23T04:21:49.041Z,4.30
2023-12-23T04:24:17.055Z,3.87
2023-12-23T04:26:45.274Z,4.10
2023-12-23T04:29:13.468Z,4.00
2023-12-23T04:31:42.637Z,2.80
2023-12-23T04:34:12.214Z,4.03
2023-12-23T04:36:40.651Z,3.90
2023-12-23T04:39:10.051Z,3.67
2023-12-23T04:41:37.142Z,3.53
2023-12-23T04:44:05.235Z,3.20
2023-12-23T04:46:33.346Z,3.60
2023-12-23T04:49:01.375Z,4.00
2023-12-23T04:51:29.587Z,3.63
2023-12-23T04:53:57.617Z,3.60
2023-12-23T04:56:27.094Z,3.70
2023-12-23T04:58:57.197Z,3.20
2023-12-23T05:01:26.718Z,3.27
2023-12-23T05:03:55.932Z,3.00
2023-12-23T05:06:24.471Z,2.90
2023-12-23T05:08:52.813Z,3.87
2023-12-23T05:11:20.919Z,3.03
2023-12-23T05:13:50.337Z,4.10
2023-12-23T05:16:18.448Z,3.20
2023-12-23T05:18:46.731Z,3.10
2023-12-23T05:21:14.914Z,2.97
2023-12-23T05:23:43.160Z,2.70
2023-12-23T05:26:11.232Z,2.53
2023-12-23T05:28:39.601Z,2.63
2023-12-23T05:31:09.096Z,2.50
2023-12-23T05:33:37.354Z,3.17
2023-12-23T05:36:05.713Z,3.07
2023-12-23T05:38:33.777Z,3.00
2023-12-23T05:41:02.839Z,2.70
2023-12-23T05:43:30.889Z,2.70
2023-12-23T05:45:59.066Z,2.63
2023-12-23T05:48:28.640Z,2.87
2023-12-23T05:50:56.678Z,2.40
2023-12-23T05:53:25.068Z,2.67
2023-12-23T05:55:53.511Z,3.63
2023-12-23T05:58:21.693Z,2.70
2023-12-23T06:00:50.526Z,3.73
2023-12-23T06:03:18.556Z,3.00
2023-12-23T06:05:48.123Z,3.07
2023-12-23T06:08:16.176Z,3.47
2023-12-23T06:10:50.934Z,3.20
2023-12-23T06:13:26.576Z,3.27
2023-12-23T06:15:55.541Z,3.27
2023-12-23T06:18:23.698Z,3.20
2023-12-23T06:20:53.125Z,2.80
2023-12-23T06:23:21.139Z,2.33
2023-12-23T06:25:49.228Z,2.90
2023-12-23T06:28:17.240Z,2.77
2023-12-23T06:30:45.420Z,2.70
2023-12-23T06:33:13.533Z,2.83
2023-12-23T06:35:41.698Z,3.07
2023-12-23T06:38:11.364Z,2.50
2023-12-23T06:40:39.576Z,2.67
2023-12-23T06:43:43.422Z,2.47
2023-12-23T06:45:55.948Z,2.53
2023-12-23T06:48:24.165Z,2.67
2023-12-23T06:50:52.316Z,2.93
2023-12-23T06:53:21.795Z,2.50
2023-12-23T06:55:49.948Z,2.80
2023-12-23T06:58:17.978Z,2.20
2023-12-23T07:00:45.998Z,2.50
2023-12-23T07:03:14.099Z,2.30
2023-12-23T07:05:42.530Z,2.40
2023-12-23T07:08:10.646Z,2.33
2023-12-23T07:10:40.222Z,2.50
2023-12-23T07:13:09.410Z,2.40
2023-12-23T07:15:37.425Z,2.87
2023-12-23T07:18:06.346Z,3.00
2023-12-23T07:20:34.650Z,2.30
2023-12-23T07:23:02.756Z,2.30
2023-12-23T07:25:30.933Z,2.67
2023-12-23T07:28:00.597Z,2.33
2023-12-23T07:30:28.898Z,2.20
2023-12-23T07:32:57.571Z,2.43
2023-12-23T07:35:26.723Z,3.10
2023-12-23T07:37:55.324Z,2.53
2023-12-23T07:40:25.724Z,3.00
2023-12-23T07:42:55.457Z,2.20
2023-12-23T07:45:25.469Z,2.87
2023-12-23T07:47:53.798Z,2.60
2023-12-23T07:50:22.014Z,3.00
2023-12-23T07:52:50.721Z,2.80
2023-12-23T07:55:19.098Z,2.90
2023-12-23T07:57:47.656Z,2.67
2023-12-23T08:00:16.947Z,2.80
2023-12-23T08:02:46.541Z,2.60
2023-12-23T08:05:17.003Z,2.47
2023-12-23T08:07:45.608Z,4.03
2023-12-23T08:10:13.776Z,2.20
2023-12-23T08:12:41.847Z,2.57
2023-12-23T08:15:10.734Z,2.40
2023-12-23T08:17:39.214Z,2.33
2023-12-23T08:20:09.964Z,3.23
2023-12-23T08:22:38.217Z,2.10
2023-12-23T08:25:06.804Z,3.10
2023-12-23T08:27:35.372Z,2.57
2023-12-23T08:30:04.288Z,2.60
2023-12-23T08:32:32.848Z,2.63
2023-12-23T08:35:01.009Z,3.07
2023-12-23T08:37:30.738Z,2.70
2023-12-23T08:39:59.027Z,2.53
2023-12-23T08:42:27.348Z,2.60
2023-12-23T08:44:56.052Z,2.93
2023-12-23T08:47:24.758Z,2.90
2023-12-23T08:49:53.044Z,2.23
2023-12-23T08:52:21.843Z,2.20
2023-12-23T08:54:51.345Z,2.60
2023-12-23T08:57:19.503Z,2.00
2023-12-23T08:59:47.534Z,2.90
2023-12-23T09:02:15.664Z,2.20
2023-12-23T09:04:43.784Z,2.20
2023-12-23T09:07:13.408Z,2.33
2023-12-23T09:09:42.486Z,2.77
2023-12-23T09:12:11.911Z,2.50
2023-12-23T09:14:40.081Z,2.40
2023-12-23T09:17:08.215Z,2.40
2023-12-23T09:19:36.273Z,2.50
2023-12-23T09:22:05.228Z,2.30
2023-12-23T09:24:33.393Z,2.33
2023-12-23T09:27:01.459Z,2.27
2023-12-23T09:29:30.937Z,2.17
2023-12-23T09:31:59.440Z,2.17
2023-12-23T09:34:27.769Z,2.07
2023-12-23T09:36:55.919Z,2.50
2023-12-23T09:39:24.022Z,2.47
2023-12-23T09:41:52.128Z,2.00
2023-12-23T09:44:20.375Z,2.90
2023-12-23T09:46:50.514Z,2.80
2023-12-23T09:49:19.064Z,1.90
2023-12-23T09:51:49.475Z,2.50
2023-12-23T09:54:22.580Z,2.10
2023-12-23T09:56:51.971Z,2.77
2023-12-23T09:59:20.363Z,2.20
2023-12-23T10:01:49.928Z,1.57
2023-12-23T10:04:17.961Z,2.40
2023-12-23T10:06:46.170Z,2.43
2023-12-23T10:09:14.249Z,2.10
2023-12-23T10:11:42.316Z,2.07
2023-12-23T10:14:10.565Z,2.57
2023-12-23T10:16:42.680Z,2.20
2023-12-23T10:19:13.582Z,2.40
2023-12-23T10:21:42.799Z,1.83
2023-12-23T10:24:10.952Z,2.50
2023-12-23T10:26:40.289Z,2.50
2023-12-23T10:29:10.850Z,1.77
2023-12-23T10:31:39.609Z,2.53
2023-12-23T10:34:09.897Z,2.43
2023-12-23T10:36:43.108Z,2.60
2023-12-23T10:39:17.957Z,2.60
2023-12-23T10:41:53.087Z,2.80
2023-12-23T10:44:22.418Z,2.20
2023-12-23T10:46:52.928Z,2.00
2023-12-23T10:49:25.426Z,3.10
2023-12-23T10:51:56.849Z,2.03
2023-12-23T10:54:28.615Z,2.43
2023-12-23T10:56:58.773Z,2.00
2023-12-23T10:59:27.175Z,2.23
2023-12-23T11:01:57.286Z,2.20
2023-12-23T11:04:27.586Z,2.37
2023-12-23T11:07:00.773Z,3.03
2023-12-23T11:09:30.557Z,2.10
2023-12-23T11:11:58.993Z,3.00
2023-12-23T11:14:27.225Z,2.80
2023-12-23T11:16:58.795Z,3.17
2023-12-23T11:19:27.565Z,2.47
2023-12-23T11:22:25.024Z,2.90
2023-12-23T11:24:53.416Z,2.30
2023-12-23T11:27:32.764Z,2.03
2023-12-23T11:30:02.556Z,2.70
2023-12-23T11:32:38.610Z,2.53
2023-12-23T11:35:09.481Z,2.30
2023-12-23T11:37:54.785Z,2.80
2023-12-23T11:40:23.932Z,1.70
2023-12-23T11:42:52.524Z,2.00
2023-12-23T11:45:21.029Z,2.13
2023-12-23T11:47:50.281Z,1.67
2023-12-23T11:50:18.461Z,2.90
2023-12-23T11:52:47.504Z,2.90
2023-12-23T11:55:18.214Z,2.30
2023-12-23T11:57:46.588Z,1.80
2023-12-23T12:00:16.140Z,2.23
2023-12-23T12:02:44.218Z,1.67
2023-12-23T12:05:13.372Z,1.90
2023-12-23T12:07:42.108Z,1.83
2023-12-23T12:10:10.601Z,2.03
2023-12-23T12:12:40.439Z,1.90
2023-12-23T12:15:09.334Z,1.80
2023-12-23T12:17:38.041Z,1.60
2023-12-23T12:20:07.202Z,1.40
2023-12-23T12:22:35.492Z,2.00
2023-12-23T12:25:03.970Z,1.57
2023-12-23T12:27:32.202Z,2.00
2023-12-23T12:30:01.826Z,1.60
2023-12-23T12:32:30.044Z,2.07
2023-12-23T12:35:03.121Z,1.63
2023-12-23T12:37:31.372Z,2.20
2023-12-23T12:40:03.282Z,1.80
2023-12-23T12:42:32.187Z,1.97
2023-12-23T12:45:06.501Z,2.00
2023-12-23T12:47:38.204Z,1.77
2023-12-23T12:50:08.545Z,1.60
2023-12-23T12:52:37.539Z,1.27
2023-12-23T12:55:06.887Z,1.90
2023-12-23T12:57:35.021Z,1.20
2023-12-23T13:00:08.789Z,1.37
2023-12-23T13:02:36.844Z,1.60
2023-12-23T13:05:05.745Z,1.57
2023-12-23T13:07:33.830Z,2.10
2023-12-23T13:10:01.915Z,1.53
2023-12-23T13:12:29.970Z,1.40
2023-12-23T13:14:58.698Z,1.60
2023-12-23T13:17:28.367Z,1.30
2023-12-23T13:19:56.778Z,1.10
2023-12-23T13:22:24.892Z,1.73
2023-12-23T13:24:52.880Z,1.17
2023-12-23T13:27:21.164Z,1.37
2023-12-23T13:29:49.197Z,1.70
2023-12-23T13:32:17.375Z,1.67
2023-12-23T13:34:46.824Z,1.40
2023-12-23T13:37:16.469Z,1.47
2023-12-23T13:39:44.479Z,1.47
2023-12-23T13:42:12.565Z,1.13
2023-12-23T13:44:40.765Z,1.70
2023-12-23T13:47:08.956Z,1.63
2023-12-23T13:49:37.186Z,2.03
2023-12-23T13:52:06.958Z,1.23
2023-12-23T13:54:35.116Z,1.20
2023-12-23T13:57:03.312Z,1.30
2023-12-23T13:59:31.361Z,1.27
2023-12-23T14:01:59.556Z,1.40
2023-12-23T14:04:27.585Z,1.53
2023-12-23T14:06:55.594Z,1.37
2023-12-23T14:09:25.013Z,1.20
2023-12-23T14:11:53.288Z,1.67
2023-12-23T14:14:21.390Z,1.83
2023-12-23T14:16:49.543Z,1.30
2023-12-23T14:19:17.612Z,1.70
2023-12-23T14:21:45.977Z,1.90
2023-12-23T14:24:14.085Z,2.00
2023-12-23T14:26:44.760Z,1.73
2023-12-23T14:29:13.198Z,1.30
2023-12-23T14:31:41.895Z,2.10
2023-12-23T14:34:10.009Z,1.93
2023-12-23T14:36:39.072Z,1.10
2023-12-23T14:39:07.078Z,1.70
2023-12-23T14:41:35.286Z,1.90
2023-12-23T14:44:06.410Z,1.80
2023-12-23T14:46:36.290Z,1.70
2023-12-23T14:49:04.565Z,1.43
2023-12-23T14:51:32.825Z,1.40
2023-12-23T14:54:01.016Z,1.80
2023-12-23T14:56:29.179Z,1.33
2023-12-23T14:58:57.446Z,1.60
2023-12-23T15:01:27.398Z,1.80
2023-12-23T15:03:55.478Z,1.50
2023-12-23T15:06:23.751Z,1.47
2023-12-23T15:08:52.020Z,1.67
2023-12-23T15:11:20.372Z,1.53
2023-12-23T15:13:49.627Z,1.70
2023-12-23T15:16:18.069Z,2.27
2023-12-23T15:18:47.606Z,1.80
2023-12-23T15:21:16.295Z,1.80
2023-12-23T15:23:44.796Z,1.80
2023-12-23T15:26:13.253Z,1.67
2023-12-23T15:28:41.358Z,2.00
2023-12-23T15:31:09.418Z,1.67
2023-12-23T15:33:37.523Z,1.80
2023-12-23T15:36:08.408Z,1.50
2023-12-23T15:38:36.767Z,1.83
2023-12-23T15:41:05.116Z,1.20
2023-12-23T15:43:33.180Z,1.70
2023-12-23T15:46:02.093Z,1.60
2023-12-23T15:48:30.502Z,1.83
2023-12-23T15:50:58.546Z,1.60
2023-12-23T15:53:28.042Z,1.70
2023-12-23T15:55:56.120Z,1.60
2023-12-23T15:58:24.153Z,1.60
2023-12-23T16:00:52.185Z,2.00
2023-12-23T16:03:20.291Z,2.33
2023-12-23T16:05:48.476Z,2.10
2023-12-23T16:08:16.664Z,1.60
2023-12-23T16:10:46.306Z,1.70
2023-12-23T16:13:14.940Z,2.17
2023-12-23T16:15:43.034Z,2.03
2023-12-23T16:18:11.441Z,3.00
2023-12-23T16:20:39.468Z,2.00
2023-12-23T16:23:07.546Z,2.13
2023-12-23T16:25:35.598Z,2.63
2023-12-23T16:28:05.821Z,2.20
2023-12-23T16:30:33.834Z,1.80
2023-12-23T16:33:01.923Z,2.30
2023-12-23T16:35:30.424Z,1.90
2023-12-23T16:37:58.649Z,2.03
2023-12-23T16:40:26.922Z,2.43
2023-12-23T16:42:55.427Z,1.70
2023-12-23T16:45:25.078Z,2.47
2023-12-23T16:47:53.818Z,2.47
2023-12-23T16:50:22.033Z,2.50
2023-12-23T16:52:50.341Z,2.37
2023-12-23T16:55:18.736Z,2.03
2023-12-23T16:57:46.910Z,2.17
2023-12-23T17:00:15.608Z,2.40
2023-12-23T17:02:45.849Z,2.10
2023-12-23T17:05:14.042Z,2.30
2023-12-23T17:07:42.132Z,2.10
2023-12-23T17:10:10.672Z,2.30
2023-12-23T17:12:38.678Z,1.87
2023-12-23T17:15:07.949Z,2.10
2023-12-23T17:17:36.201Z,1.80
2023-12-23T17:20:06.741Z,2.00
2023-12-23T17:22:35.065Z,2.40
2023-12-23T17:25:03.166Z,2.13
2023-12-23T17:27:31.876Z,2.07
2023-12-23T17:30:01.486Z,1.77
2023-12-23T17:32:29.719Z,2.13
2023-12-23T17:34:57.989Z,2.50
2023-12-23T17:37:27.462Z,2.10
2023-12-23T17:39:55.924Z,1.63
2023-12-23T17:42:23.935Z,2.43
2023-12-23T17:44:52.104Z,1.90
2023-12-23T17:47:20.535Z,2.50
2023-12-23T17:49:48.661Z,2.17
2023-12-23T17:52:16.723Z,2.10
2023-12-23T17:54:46.159Z,2.60
2023-12-23T17:57:16.056Z,2.10
2023-12-23T17:59:44.400Z,2.67
2023-12-23T18:02:13.963Z,1.90
2023-12-23T18:04:42.249Z,2.20
2023-12-23T18:07:10.318Z,1.90
2023-12-23T18:09:38.533Z,2.07
2023-12-23T18:12:08.334Z,1.73
2023-12-23T18:14:36.538Z,2.03
2023-12-23T18:17:05.307Z,1.70
2023-12-23T18:19:33.515Z,2.07
2023-12-23T18:22:02.675Z,1.80
2023-12-23T18:24:31.012Z,2.20
2023-12-23T18:27:00.230Z,1.93
2023-12-23T18:29:29.701Z,2.07
2023-12-23T18:31:58.598Z,1.50
2023-12-23T18:34:27.850Z,1.73
2023-12-23T18:36:56.040Z,1.33
2023-12-23T18:39:25.012Z,2.00
2023-12-23T18:41:53.038Z,2.20
2023-12-23T18:44:22.407Z,1.80
2023-12-23T18:46:54.807Z,1.97
2023-12-23T18:49:24.361Z,1.97
2023-12-23T18:51:52.534Z,1.80
2023-12-23T18:54:20.633Z,1.60
2023-12-23T18:56:48.683Z,1.47
2023-12-23T18:59:17.184Z,1.73
2023-12-23T19:01:45.304Z,1.63
2023-12-23T19:04:14.668Z,1.50
2023-12-23T19:06:42.873Z,1.60
2023-12-23T19:09:10.930Z,1.87
2023-12-23T19:11:39.078Z,1.80
2023-12-23T19:14:07.251Z,1.13
2023-12-23T19:16:35.603Z,1.53
2023-12-23T19:19:03.099Z,1.20
2023-12-23T19:21:32.864Z,1.60
2023-12-23T19:24:00.887Z,1.67
2023-12-23T19:26:29.769Z,1.97
2023-12-23T19:28:59.859Z,1.40
2023-12-23T19:31:31.014Z,1.30
2023-12-23T19:34:00.768Z,1.90
2023-12-23T19:36:29.012Z,1.63
2023-12-23T19:38:58.439Z,1.47
2023-12-23T19:41:26.848Z,1.90
2023-12-23T19:43:55.010Z,2.60
2023-12-23T19:46:23.242Z,1.63
2023-12-23T19:48:51.346Z,1.20
2023-12-23T19:51:20.033Z,2.00
2023-12-23T19:53:48.187Z,1.50
2023-12-23T19:56:17.642Z,1.60
2023-12-23T19:58:45.844Z,1.67
2023-12-23T20:01:14.577Z,1.80
2023-12-23T20:03:42.994Z,1.77
2023-12-23T20:06:13.172Z,1.13
2023-12-23T20:08:41.490Z,1.23
2023-12-23T20:11:09.649Z,1.90
2023-12-23T20:13:40.041Z,1.20
2023-12-23T20:16:08.400Z,1.60
2023-12-23T20:18:37.436Z,1.70
2023-12-23T20:21:05.786Z,1.40
2023-12-23T20:23:34.138Z,1.67
2023-12-23T20:26:02.322Z,1.70
2023-12-23T20:28:30.317Z,1.70
2023-12-23T20:30:59.730Z,1.50
2023-12-23T20:33:28.271Z,1.47
2023-12-23T20:35:56.463Z,1.27
2023-12-23T20:38:25.362Z,2.23
2023-12-23T20:40:53.429Z,1.70
2023-12-23T20:43:21.751Z,1.80
2023-12-23T20:45:50.066Z,1.80
2023-12-23T20:48:19.658Z,1.80
2023-12-23T20:50:48.609Z,1.30
2023-12-23T20:53:16.957Z,1.30
2023-12-23T20:55:45.186Z,1.20
2023-12-23T20:58:13.469Z,1.60
2023-12-23T21:00:41.761Z,2.17
2023-12-23T21:03:09.931Z,1.90
2023-12-23T21:05:39.597Z,2.10
2023-12-23T21:08:08.413Z,1.77
2023-12-23T21:10:37.314Z,1.87
2023-12-23T21:13:06.019Z,1.77
2023-12-23T21:15:34.070Z,1.63
2023-12-23T21:18:02.283Z,2.23
2023-12-23T21:20:30.856Z,1.97
2023-12-23T21:23:00.247Z,1.90
2023-12-23T21:25:28.260Z,1.63
2023-12-23T21:27:56.518Z,1.50
2023-12-23T21:30:25.972Z,1.43
2023-12-23T21:32:54.358Z,1.97
2023-12-23T21:35:23.033Z,1.83
2023-12-23T21:37:51.078Z,1.37
2023-12-23T21:40:20.803Z,1.80
2023-12-23T21:42:49.042Z,1.93
2023-12-23T21:45:17.129Z,1.83
2023-12-23T21:47:48.744Z,1.77
2023-12-23T21:50:17.174Z,2.03
2023-12-23T21:52:46.513Z,2.13
2023-12-23T21:55:14.784Z,2.93
2023-12-23T21:57:44.793Z,1.70
2023-12-23T22:00:13.882Z,1.40
2023-12-23T22:02:42.418Z,1.40
2023-12-23T22:05:10.933Z,1.93
2023-12-23T22:07:39.108Z,1.60
2023-12-23T22:10:08.997Z,1.50
2023-12-23T22:12:37.174Z,2.00
2023-12-23T22:15:08.073Z,2.00
2023-12-23T22:17:36.235Z,2.07
2023-12-23T22:20:05.046Z,2.10
2023-12-23T22:22:33.091Z,1.50
2023-12-23T22:25:01.305Z,1.60
2023-12-23T22:27:29.664Z,1.67
2023-12-23T22:29:57.694Z,1.50
2023-12-23T22:32:27.166Z,1.60
2023-12-23T22:34:55.892Z,1.57
2023-12-23T22:37:23.999Z,1.80
2023-12-23T22:39:52.164Z,1.90
2023-12-23T22:42:20.586Z,1.67
2023-12-23T22:44:48.817Z,2.20
2023-12-23T22:47:17.474Z,1.97
2023-12-23T22:49:50.248Z,2.27
2023-12-23T22:52:19.481Z,2.23
2023-12-23T22:54:47.646Z,1.70
2023-12-23T22:57:15.808Z,1.73
2023-12-23T22:59:43.886Z,1.63
2023-12-23T23:02:12.357Z,1.70
2023-12-23T23:04:41.393Z,1.40
2023-12-23T23:07:12.343Z,1.50
2023-12-23T23:09:40.509Z,1.70
2023-12-23T23:12:08.999Z,1.90
2023-12-23T23:14:38.900Z,1.93
2023-12-23T23:17:07.285Z,1.73
2023-12-23T23:19:35.846Z,1.80
2023-12-23T23:22:04.276Z,1.80
2023-12-23T23:24:33.627Z,1.47
2023-12-23T23:27:01.692Z,2.00
2023-12-23T23:29:30.044Z,2.13
2023-12-23T23:31:58.110Z,1.43
2023-12-23T23:34:26.186Z,1.80
2023-12-23T23:39:59.704Z,1.30
2023-12-23T23:42:27.821Z,1.80
2023-12-23T23:44:56.117Z,1.70
2023-12-23T23:47:24.428Z,2.07
2023-12-23T23:49:52.588Z,2.00
2023-12-23T23:52:20.799Z,1.50
2023-12-23T23:54:48.996Z,2.10
2023-12-23T23:57:18.419Z,1.30
2023-12-23T23:59:46.571Z,1.63
